Monday, October 16, 2017, 8:30 PM EDT
Back to Local

KEWB, New Bedford Regional Airport

Location: New Bedford, MA, United States Lat: 41.683
Local Time: 8:30 PM EDT ( 0:30 GMT) Lon: -70.967
Time Zone: US/Eastern Elev: 78 ft

Show me the last for .
Show Decoded

2017-10-16 19:53 METAR KEWB 162353Z VRB06KT 10SM CLR 09/04 A3005 RMK AO2 SLP176 T00940039 10150
                 20094 53027 =
2017-10-16 18:53 METAR KEWB 162253Z 00000KT 10SM CLR 10/05 A3002 RMK AO2 SLP166 T01000050 =
2017-10-16 17:53 METAR KEWB 162153Z COR 35006KT 10SM BKN049 11/04 A2999 RMK AO2 SLP154 T01110044
                 =
2017-10-16 16:53 METAR KEWB 162053Z 34006KT 10SM FEW049 12/06 A2997 RMK AO2 SLP148 T01220056
                 53020 =
2017-10-16 15:53 METAR KEWB 161953Z VRB06KT 10SM OVC040 13/08 A2995 RMK AO2 PRESRR SLP142
                 T01330078 =
2017-10-16 14:53 METAR KEWB 161853Z VRB04KT 10SM OVC039 14/07 A2992 RMK AO2 SLP132 T01390072 =
2017-10-16 13:53 METAR KEWB 161753Z 32007KT 10SM CLR 15/08 A2991 RMK AO2 SLP128 60000 T01500078
                 10167 20150 51002 =
2017-10-16 12:53 METAR KEWB 161653Z 31005KT 10SM CLR 16/09 A2990 RMK AO2 SLP125 T01610094 =
2017-10-16 11:53 METAR KEWB 161553Z 30006KT 10SM CLR 16/09 A2992 RMK AO2 SLP131 T01560089 =
2017-10-16 10:53 METAR KEWB 161453Z VRB06KT 10SM CLR 16/09 A2990 RMK AO2 SLP126 60000 T01610094
                 53020 =
2017-10-16 09:53 METAR KEWB 161353Z COR VRB05KT 10SM COR120 16/09 A2988 RMK AO2 RAB1259E08 SLP116
                 P0000 T01560094 =
2017-10-16 08:53 METAR KEWB 161253Z 29007KT 10SM BKN120 16/13 A2987 RMK AO2 SLP115 T01560128 =
2017-10-16 07:53 METAR KEWB 161153Z COR 26006KT 10SM SCT024 OVC110 16/13 A2985 RMK AO2 RAB10E40
                 PRESRR SLP106 P0000 60000 T01560133 10194 20156 53033 =
2017-10-16 06:53 METAR KEWB 161053Z 29007KT 10SM OVC090 17/13 A2980 RMK AO2 SLP089 T01720133 $ =
2017-10-16 06:10 METAR KEWB 161010Z AUTO 30007KT 10SM SCT025 OVC090 17/13 A2978 RMK AO2 T01720133
                 $ =
2017-10-16 05:53 METAR KEWB 160953Z AUTO 30006KT 10SM OVC023 18/14 A2978 RMK AO2 SLP084 T01780144
                 $ =
2017-10-16 05:03 METAR KEWB 160903Z AUTO 33005KT 8SM SCT006 BKN015 OVC023 19/18 A2976 RMK AO2
                 T01940183 $ =
2017-10-16 04:53 METAR KEWB 160853Z AUTO 24006KT 7SM SCT020 OVC026 19/18 A2975 RMK AO2 SLP073
                 T01940183 55004 $ =
2017-10-16 04:38 METAR KEWB 160838Z AUTO 23006KT 8SM SCT008 BKN024 OVC028 19/18 A2974 RMK AO2
                 T01940183 $ =
2017-10-16 03:53 METAR KEWB 160753Z AUTO 23008KT 7SM OVC005 19/18 A2974 RMK AO2 CIG 004V008
                 SLP071 T01890183 $ =
2017-10-16 02:53 METAR KEWB 160653Z AUTO 24011KT 5SM BR OVC005 19/18 A2975 RMK AO2 SLP075
                 T01890183 $ =
2017-10-16 01:53 METAR KEWB 160553Z AUTO 23017G22KT 9SM OVC006 19/18 A2976 RMK AO2 SLP077
                 T01890178 10194 20189 56010 $ =
2017-10-16 01:15 METAR KEWB 160515Z AUTO 23015G24KT 8SM OVC009 19/18 A2976 RMK AO2 CIG 007V012
                 T01890178 $ =
2017-10-16 00:53 METAR KEWB 160453Z AUTO 22014G24KT 9SM OVC010 19/17 A2977 RMK AO2 PK WND
                 22029/0421 CIG 009V013 SLP079 T01890172 402110161 $ =
2017-10-15 23:53 METAR KEWB 160353Z AUTO 22015G30KT 10SM OVC011 19/17 A2977 RMK AO2 PK WND
                 24032/0343 SLP079 T01940172 $ =
2017-10-15 22:53 METAR KEWB 160253Z AUTO 22016G26KT 10SM OVC010 19/17 A2979 RMK AO2 PK WND
                 22033/0225 SLP087 T01940172 55001 $ =
2017-10-15 22:49 METAR KEWB 160249Z AUTO 22017G25KT 10SM OVC010 19/17 A2978 RMK AO2 PK WND
                 22033/0225 $ =
2017-10-15 22:08 METAR KEWB 160208Z AUTO 22015G32KT 10SM OVC009 19/17 A2978 RMK AO2 PK WND
                 20032/0205 T01890172 $ =
2017-10-15 21:53 METAR KEWB 160153Z 22018G30KT 10SM OVC010 19/17 A2978 RMK AO2 PK WND 23032/0138
                 SLP085 T01890172 $ =
2017-10-15 21:33 METAR KEWB 160133Z 23016G27KT 10SM OVC010 19/17 A2979 RMK AO2 PK WND 21030/0109
                 T01890172 $ =
2017-10-15 20:53 METAR KEWB 160053Z 22021G31KT 10SM OVC008 19/17 A2979 RMK AO2 PK WND 22031/0049
                 CIG 007V011 SLP089 T01890172 $ =

Support USWX by starting your Amazon purchase here.